sensor_id;sensor_type;location;lat;lon;timestamp;P1;durP1;ratioP1;P2;durP2;ratioP2
55827;SDS011;41758;51.992;5.890;2022-07-29T00:02:26;2.42;;;1.27;;
55827;SDS011;41758;51.992;5.890;2022-07-29T00:04:52;2.50;;;1.20;;
55827;SDS011;41758;51.992;5.890;2022-07-29T00:07:18;3.15;;;1.40;;
55827;SDS011;41758;51.992;5.890;2022-07-29T00:09:44;3.85;;;1.30;;
55827;SDS011;41758;51.992;5.890;2022-07-29T00:12:10;2.67;;;1.15;;
55827;SDS011;41758;51.992;5.890;2022-07-29T00:14:35;3.03;;;1.38;;
55827;SDS011;41758;51.992;5.890;2022-07-29T00:17:01;2.58;;;1.10;;
55827;SDS011;41758;51.992;5.890;2022-07-29T00:19:27;3.17;;;1.25;;
55827;SDS011;41758;51.992;5.890;2022-07-29T00:21:53;3.90;;;1.27;;
55827;SDS011;41758;51.992;5.890;2022-07-29T00:24:18;3.10;;;1.33;;
55827;SDS011;41758;51.992;5.890;2022-07-29T00:26:44;2.60;;;1.20;;
55827;SDS011;41758;51.992;5.890;2022-07-29T00:29:10;4.70;;;1.50;;
55827;SDS011;41758;51.992;5.890;2022-07-29T00:31:36;2.47;;;1.27;;
55827;SDS011;41758;51.992;5.890;2022-07-29T00:34:01;5.97;;;1.65;;
55827;SDS011;41758;51.992;5.890;2022-07-29T00:36:27;3.92;;;1.40;;
55827;SDS011;41758;51.992;5.890;2022-07-29T00:38:53;3.85;;;1.52;;
55827;SDS011;41758;51.992;5.890;2022-07-29T00:41:19;4.03;;;1.55;;
55827;SDS011;41758;51.992;5.890;2022-07-29T00:43:45;3.53;;;1.30;;
55827;SDS011;41758;51.992;5.890;2022-07-29T00:46:10;3.20;;;1.38;;
55827;SDS011;41758;51.992;5.890;2022-07-29T00:48:36;2.13;;;1.27;;
55827;SDS011;41758;51.992;5.890;2022-07-29T00:51:05;3.33;;;1.42;;
55827;SDS011;41758;51.992;5.890;2022-07-29T00:53:32;2.20;;;1.35;;
55827;SDS011;41758;51.992;5.890;2022-07-29T00:56:00;3.55;;;1.38;;
55827;SDS011;41758;51.992;5.890;2022-07-29T00:58:26;2.72;;;1.40;;
55827;SDS011;41758;51.992;5.890;2022-07-29T01:00:52;3.25;;;1.55;;
55827;SDS011;41758;51.992;5.890;2022-07-29T01:03:18;3.58;;;1.60;;
55827;SDS011;41758;51.992;5.890;2022-07-29T01:05:44;2.33;;;1.27;;
55827;SDS011;41758;51.992;5.890;2022-07-29T01:08:11;2.50;;;1.40;;
55827;SDS011;41758;51.992;5.890;2022-07-29T01:10:40;3.28;;;1.48;;
55827;SDS011;41758;51.992;5.890;2022-07-29T01:13:07;2.58;;;1.30;;
55827;SDS011;41758;51.992;5.890;2022-07-29T01:15:34;5.03;;;1.60;;
55827;SDS011;41758;51.992;5.890;2022-07-29T01:18:12;4.55;;;1.70;;
55827;SDS011;41758;51.992;5.890;2022-07-29T01:31:59;3.33;;;1.50;;
55827;SDS011;41758;51.992;5.890;2022-07-29T01:37:46;3.47;;;1.30;;
55827;SDS011;41758;51.992;5.890;2022-07-29T01:43:03;4.82;;;1.73;;
55827;SDS011;41758;51.992;5.890;2022-07-29T01:48:23;4.45;;;1.70;;
55827;SDS011;41758;51.992;5.890;2022-07-29T01:51:05;2.28;;;1.33;;
55827;SDS011;41758;51.992;5.890;2022-07-29T01:56:30;4.90;;;1.43;;
55827;SDS011;41758;51.992;5.890;2022-07-29T01:58:58;3.45;;;1.40;;
55827;SDS011;41758;51.992;5.890;2022-07-29T02:01:26;3.53;;;1.40;;
55827;SDS011;41758;51.992;5.890;2022-07-29T02:03:54;2.58;;;1.20;;
55827;SDS011;41758;51.992;5.890;2022-07-29T02:06:22;4.68;;;1.60;;
55827;SDS011;41758;51.992;5.890;2022-07-29T02:08:49;4.55;;;1.50;;
55827;SDS011;41758;51.992;5.890;2022-07-29T02:11:18;5.10;;;1.50;;
55827;SDS011;41758;51.992;5.890;2022-07-29T02:13:43;3.47;;;1.60;;
55827;SDS011;41758;51.992;5.890;2022-07-29T02:16:11;4.70;;;1.70;;
55827;SDS011;41758;51.992;5.890;2022-07-29T02:18:39;4.53;;;1.75;;
55827;SDS011;41758;51.992;5.890;2022-07-29T02:21:07;3.78;;;1.38;;
55827;SDS011;41758;51.992;5.890;2022-07-29T02:23:34;4.95;;;1.83;;
55827;SDS011;41758;51.992;5.890;2022-07-29T02:26:02;3.35;;;1.52;;
55827;SDS011;41758;51.992;5.890;2022-07-29T02:28:28;3.60;;;1.60;;
55827;SDS011;41758;51.992;5.890;2022-07-29T02:30:57;4.28;;;1.58;;
55827;SDS011;41758;51.992;5.890;2022-07-29T02:33:25;3.40;;;1.60;;
55827;SDS011;41758;51.992;5.890;2022-07-29T02:35:52;3.15;;;1.60;;
55827;SDS011;41758;51.992;5.890;2022-07-29T02:38:21;2.75;;;1.40;;
55827;SDS011;41758;51.992;5.890;2022-07-29T02:41:08;2.92;;;1.70;;
55827;SDS011;41758;51.992;5.890;2022-07-29T02:43:39;3.72;;;1.70;;
55827;SDS011;41758;51.992;5.890;2022-07-29T02:46:11;3.60;;;1.73;;
55827;SDS011;41758;51.992;5.890;2022-07-29T02:48:55;2.78;;;1.65;;
55827;SDS011;41758;51.992;5.890;2022-07-29T02:51:32;2.70;;;1.55;;
55827;SDS011;41758;51.992;5.890;2022-07-29T02:54:06;4.25;;;1.75;;
55827;SDS011;41758;51.992;5.890;2022-07-29T02:56:34;3.97;;;1.77;;
55827;SDS011;41758;51.992;5.890;2022-07-29T02:59:03;5.03;;;1.92;;
55827;SDS011;41758;51.992;5.890;2022-07-29T03:01:32;4.25;;;2.10;;
55827;SDS011;41758;51.992;5.890;2022-07-29T03:04:03;3.33;;;1.67;;
55827;SDS011;41758;51.992;5.890;2022-07-29T03:06:29;3.10;;;1.75;;
55827;SDS011;41758;51.992;5.890;2022-07-29T03:08:58;4.88;;;1.88;;
55827;SDS011;41758;51.992;5.890;2022-07-29T03:11:25;3.55;;;1.60;;
55827;SDS011;41758;51.992;5.890;2022-07-29T03:13:51;4.05;;;1.70;;
55827;SDS011;41758;51.992;5.890;2022-07-29T03:16:18;2.65;;;1.60;;
55827;SDS011;41758;51.992;5.890;2022-07-29T03:18:44;4.80;;;1.80;;
55827;SDS011;41758;51.992;5.890;2022-07-29T03:21:11;4.20;;;1.80;;
55827;SDS011;41758;51.992;5.890;2022-07-29T03:23:37;4.65;;;2.33;;
55827;SDS011;41758;51.992;5.890;2022-07-29T03:26:10;3.92;;;2.00;;
55827;SDS011;41758;51.992;5.890;2022-07-29T03:28:36;5.47;;;2.20;;
55827;SDS011;41758;51.992;5.890;2022-07-29T03:31:02;3.08;;;1.83;;
55827;SDS011;41758;51.992;5.890;2022-07-29T03:33:27;5.00;;;2.35;;
55827;SDS011;41758;51.992;5.890;2022-07-29T03:35:55;4.47;;;2.45;;
55827;SDS011;41758;51.992;5.890;2022-07-29T03:38:21;5.00;;;2.35;;
55827;SDS011;41758;51.992;5.890;2022-07-29T03:40:54;6.07;;;2.60;;
55827;SDS011;41758;51.992;5.890;2022-07-29T03:43:25;4.38;;;2.10;;
55827;SDS011;41758;51.992;5.890;2022-07-29T03:45:55;4.68;;;2.40;;
55827;SDS011;41758;51.992;5.890;2022-07-29T03:48:25;4.40;;;2.20;;
55827;SDS011;41758;51.992;5.890;2022-07-29T03:50:54;5.28;;;2.63;;
55827;SDS011;41758;51.992;5.890;2022-07-29T03:53:20;3.95;;;2.25;;
55827;SDS011;41758;51.992;5.890;2022-07-29T03:55:48;4.35;;;2.28;;
55827;SDS011;41758;51.992;5.890;2022-07-29T03:58:19;3.28;;;1.77;;
55827;SDS011;41758;51.992;5.890;2022-07-29T04:00:45;4.00;;;2.00;;
55827;SDS011;41758;51.992;5.890;2022-07-29T04:03:12;3.50;;;1.90;;
55827;SDS011;41758;51.992;5.890;2022-07-29T04:05:38;3.58;;;2.10;;
55827;SDS011;41758;51.992;5.890;2022-07-29T04:08:04;5.32;;;2.20;;
55827;SDS011;41758;51.992;5.890;2022-07-29T04:10:30;5.30;;;2.10;;
55827;SDS011;41758;51.992;5.890;2022-07-29T04:12:56;5.90;;;1.98;;
55827;SDS011;41758;51.992;5.890;2022-07-29T04:15:21;4.82;;;2.30;;
55827;SDS011;41758;51.992;5.890;2022-07-29T04:17:47;3.80;;;2.40;;
55827;SDS011;41758;51.992;5.890;2022-07-29T04:20:13;6.38;;;2.60;;
55827;SDS011;41758;51.992;5.890;2022-07-29T04:22:39;4.10;;;2.13;;
55827;SDS011;41758;51.992;5.890;2022-07-29T04:25:05;4.45;;;2.22;;
55827;SDS011;41758;51.992;5.890;2022-07-29T04:27:31;4.30;;;2.53;;
55827;SDS011;41758;51.992;5.890;2022-07-29T04:29:57;5.35;;;2.72;;
55827;SDS011;41758;51.992;5.890;2022-07-29T04:32:24;4.63;;;2.03;;
55827;SDS011;41758;51.992;5.890;2022-07-29T04:34:50;4.28;;;2.30;;
55827;SDS011;41758;51.992;5.890;2022-07-29T04:37:16;3.75;;;2.42;;
55827;SDS011;41758;51.992;5.890;2022-07-29T04:39:42;5.30;;;2.55;;
55827;SDS011;41758;51.992;5.890;2022-07-29T04:42:07;4.38;;;2.10;;
55827;SDS011;41758;51.992;5.890;2022-07-29T04:44:33;5.05;;;2.30;;
55827;SDS011;41758;51.992;5.890;2022-07-29T04:46:59;4.78;;;2.35;;
55827;SDS011;41758;51.992;5.890;2022-07-29T04:49:25;6.40;;;2.60;;
55827;SDS011;41758;51.992;5.890;2022-07-29T04:51:50;6.13;;;2.90;;
55827;SDS011;41758;51.992;5.890;2022-07-29T04:54:16;5.30;;;2.70;;
55827;SDS011;41758;51.992;5.890;2022-07-29T04:56:42;5.18;;;2.65;;
55827;SDS011;41758;51.992;5.890;2022-07-29T04:59:07;5.97;;;2.60;;
55827;SDS011;41758;51.992;5.890;2022-07-29T05:01:34;4.63;;;2.50;;
55827;SDS011;41758;51.992;5.890;2022-07-29T05:03:59;5.15;;;2.55;;
55827;SDS011;41758;51.992;5.890;2022-07-29T05:06:25;4.53;;;2.42;;
55827;SDS011;41758;51.992;5.890;2022-07-29T05:08:51;4.50;;;2.30;;
55827;SDS011;41758;51.992;5.890;2022-07-29T05:11:16;3.72;;;2.30;;
55827;SDS011;41758;51.992;5.890;2022-07-29T05:13:42;5.95;;;2.63;;
55827;SDS011;41758;51.992;5.890;2022-07-29T05:16:08;4.32;;;2.63;;
55827;SDS011;41758;51.992;5.890;2022-07-29T05:18:34;4.32;;;2.30;;
55827;SDS011;41758;51.992;5.890;2022-07-29T05:20:59;4.20;;;2.20;;
55827;SDS011;41758;51.992;5.890;2022-07-29T05:23:25;5.20;;;2.35;;
55827;SDS011;41758;51.992;5.890;2022-07-29T05:25:51;3.90;;;2.15;;
55827;SDS011;41758;51.992;5.890;2022-07-29T05:28:16;4.03;;;2.10;;
55827;SDS011;41758;51.992;5.890;2022-07-29T05:30:42;5.35;;;2.10;;
55827;SDS011;41758;51.992;5.890;2022-07-29T05:33:09;4.18;;;1.90;;
55827;SDS011;41758;51.992;5.890;2022-07-29T05:35:35;3.70;;;1.98;;
55827;SDS011;41758;51.992;5.890;2022-07-29T05:38:02;4.10;;;2.30;;
55827;SDS011;41758;51.992;5.890;2022-07-29T05:40:28;3.20;;;1.88;;
55827;SDS011;41758;51.992;5.890;2022-07-29T05:42:55;4.07;;;2.20;;
55827;SDS011;41758;51.992;5.890;2022-07-29T05:45:21;3.42;;;1.85;;
55827;SDS011;41758;51.992;5.890;2022-07-29T05:47:46;4.10;;;2.20;;
55827;SDS011;41758;51.992;5.890;2022-07-29T05:50:12;4.32;;;2.45;;
55827;SDS011;41758;51.992;5.890;2022-07-29T05:52:38;5.75;;;2.50;;
55827;SDS011;41758;51.992;5.890;2022-07-29T05:55:04;4.30;;;2.20;;
55827;SDS011;41758;51.992;5.890;2022-07-29T05:57:31;4.97;;;2.45;;
55827;SDS011;41758;51.992;5.890;2022-07-29T05:59:57;4.68;;;2.35;;
55827;SDS011;41758;51.992;5.890;2022-07-29T06:02:23;6.03;;;2.65;;
55827;SDS011;41758;51.992;5.890;2022-07-29T06:04:48;4.13;;;2.38;;
55827;SDS011;41758;51.992;5.890;2022-07-29T06:07:14;4.40;;;2.28;;
55827;SDS011;41758;51.992;5.890;2022-07-29T06:09:41;4.05;;;2.28;;
55827;SDS011;41758;51.992;5.890;2022-07-29T06:12:07;5.32;;;2.75;;
55827;SDS011;41758;51.992;5.890;2022-07-29T06:14:33;4.85;;;2.50;;
55827;SDS011;41758;51.992;5.890;2022-07-29T06:17:00;4.15;;;2.28;;
55827;SDS011;41758;51.992;5.890;2022-07-29T06:19:26;4.13;;;2.20;;
55827;SDS011;41758;51.992;5.890;2022-07-29T06:21:54;4.75;;;2.72;;
55827;SDS011;41758;51.992;5.890;2022-07-29T06:24:20;7.30;;;2.75;;
55827;SDS011;41758;51.992;5.890;2022-07-29T06:26:46;4.30;;;2.10;;
55827;SDS011;41758;51.992;5.890;2022-07-29T06:29:11;3.60;;;2.10;;
55827;SDS011;41758;51.992;5.890;2022-07-29T06:31:37;3.03;;;1.90;;
55827;SDS011;41758;51.992;5.890;2022-07-29T06:34:03;5.38;;;2.63;;
55827;SDS011;41758;51.992;5.890;2022-07-29T06:36:28;6.03;;;2.40;;
55827;SDS011;41758;51.992;5.890;2022-07-29T06:38:54;4.45;;;2.20;;
55827;SDS011;41758;51.992;5.890;2022-07-29T06:41:20;4.63;;;2.47;;
55827;SDS011;41758;51.992;5.890;2022-07-29T06:43:46;4.57;;;2.10;;
55827;SDS011;41758;51.992;5.890;2022-07-29T06:46:14;4.88;;;2.88;;
55827;SDS011;41758;51.992;5.890;2022-07-29T06:48:42;5.70;;;2.20;;
55827;SDS011;41758;51.992;5.890;2022-07-29T06:51:08;4.78;;;2.58;;
55827;SDS011;41758;51.992;5.890;2022-07-29T06:53:35;4.18;;;2.40;;
55827;SDS011;41758;51.992;5.890;2022-07-29T06:56:01;4.85;;;2.30;;
55827;SDS011;41758;51.992;5.890;2022-07-29T06:58:28;5.15;;;2.63;;
55827;SDS011;41758;51.992;5.890;2022-07-29T07:00:55;4.82;;;2.50;;
55827;SDS011;41758;51.992;5.890;2022-07-29T07:03:22;5.32;;;2.53;;
55827;SDS011;41758;51.992;5.890;2022-07-29T07:05:48;4.60;;;2.22;;
55827;SDS011;41758;51.992;5.890;2022-07-29T07:08:14;6.07;;;2.30;;
55827;SDS011;41758;51.992;5.890;2022-07-29T07:10:41;4.53;;;2.20;;
55827;SDS011;41758;51.992;5.890;2022-07-29T07:13:07;4.07;;;2.33;;
55827;SDS011;41758;51.992;5.890;2022-07-29T07:15:33;4.60;;;2.05;;
55827;SDS011;41758;51.992;5.890;2022-07-29T07:18:01;5.15;;;2.20;;
55827;SDS011;41758;51.992;5.890;2022-07-29T07:20:27;3.95;;;2.00;;
55827;SDS011;41758;51.992;5.890;2022-07-29T07:22:56;4.10;;;2.05;;
55827;SDS011;41758;51.992;5.890;2022-07-29T07:25:22;5.97;;;2.40;;
55827;SDS011;41758;51.992;5.890;2022-07-29T07:27:55;4.95;;;2.15;;
55827;SDS011;41758;51.992;5.890;2022-07-29T07:33:25;4.47;;;2.25;;
55827;SDS011;41758;51.992;5.890;2022-07-29T07:35:50;4.65;;;2.15;;
55827;SDS011;41758;51.992;5.890;2022-07-29T07:38:16;3.72;;;1.80;;
55827;SDS011;41758;51.992;5.890;2022-07-29T07:40:45;6.03;;;2.30;;
55827;SDS011;41758;51.992;5.890;2022-07-29T07:43:18;4.03;;;1.73;;
55827;SDS011;41758;51.992;5.890;2022-07-29T07:45:50;5.43;;;2.03;;
55827;SDS011;41758;51.992;5.890;2022-07-29T07:48:25;6.28;;;2.50;;
55827;SDS011;41758;51.992;5.890;2022-07-29T07:54:20;4.05;;;1.80;;
55827;SDS011;41758;51.992;5.890;2022-07-29T07:56:53;4.32;;;2.00;;
55827;SDS011;41758;51.992;5.890;2022-07-29T07:59:28;4.53;;;2.60;;
55827;SDS011;41758;51.992;5.890;2022-07-29T08:01:54;2.95;;;1.98;;
55827;SDS011;41758;51.992;5.890;2022-07-29T08:04:20;3.50;;;2.20;;
55827;SDS011;41758;51.992;5.890;2022-07-29T08:06:50;4.90;;;2.38;;
55827;SDS011;41758;51.992;5.890;2022-07-29T08:09:16;4.43;;;2.47;;
55827;SDS011;41758;51.992;5.890;2022-07-29T08:11:42;4.32;;;2.30;;
55827;SDS011;41758;51.992;5.890;2022-07-29T08:14:07;4.70;;;2.10;;
55827;SDS011;41758;51.992;5.890;2022-07-29T08:16:33;4.47;;;2.10;;
55827;SDS011;41758;51.992;5.890;2022-07-29T08:18:59;5.53;;;2.00;;
55827;SDS011;41758;51.992;5.890;2022-07-29T08:21:25;5.55;;;2.15;;
55827;SDS011;41758;51.992;5.890;2022-07-29T08:23:51;5.68;;;2.08;;
55827;SDS011;41758;51.992;5.890;2022-07-29T08:26:43;3.58;;;2.13;;
55827;SDS011;41758;51.992;5.890;2022-07-29T08:29:26;4.45;;;2.10;;
55827;SDS011;41758;51.992;5.890;2022-07-29T08:31:57;4.60;;;1.95;;
55827;SDS011;41758;51.992;5.890;2022-07-29T08:34:29;4.18;;;2.25;;
55827;SDS011;41758;51.992;5.890;2022-07-29T08:37:52;4.88;;;2.22;;
55827;SDS011;41758;51.992;5.890;2022-07-29T08:40:33;4.15;;;1.98;;
55827;SDS011;41758;51.992;5.890;2022-07-29T08:45:43;5.72;;;2.10;;
55827;SDS011;41758;51.992;5.890;2022-07-29T08:57:13;3.28;;;1.65;;
55827;SDS011;41758;51.992;5.890;2022-07-29T08:59:54;3.40;;;2.05;;
55827;SDS011;41758;51.992;5.890;2022-07-29T09:02:46;3.95;;;2.00;;
55827;SDS011;41758;51.992;5.890;2022-07-29T09:05:16;4.80;;;2.20;;
55827;SDS011;41758;51.992;5.890;2022-07-29T09:07:43;3.65;;;1.90;;
55827;SDS011;41758;51.992;5.890;2022-07-29T09:10:12;4.25;;;2.22;;
55827;SDS011;41758;51.992;5.890;2022-07-29T09:12:38;4.45;;;2.30;;
55827;SDS011;41758;51.992;5.890;2022-07-29T09:15:07;5.13;;;2.33;;
55827;SDS011;41758;51.992;5.890;2022-07-29T09:17:42;4.55;;;2.20;;
55827;SDS011;41758;51.992;5.890;2022-07-29T09:23:28;3.58;;;1.85;;
55827;SDS011;41758;51.992;5.890;2022-07-29T09:25:56;3.50;;;2.25;;
55827;SDS011;41758;51.992;5.890;2022-07-29T09:28:30;3.78;;;2.20;;
55827;SDS011;41758;51.992;5.890;2022-07-29T09:31:01;6.28;;;2.35;;
55827;SDS011;41758;51.992;5.890;2022-07-29T09:33:41;4.10;;;2.20;;
55827;SDS011;41758;51.992;5.890;2022-07-29T09:36:08;4.20;;;2.10;;
55827;SDS011;41758;51.992;5.890;2022-07-29T09:38:35;4.55;;;1.95;;
55827;SDS011;41758;51.992;5.890;2022-07-29T09:41:02;5.10;;;2.10;;
55827;SDS011;41758;51.992;5.890;2022-07-29T09:43:29;5.55;;;2.05;;
55827;SDS011;41758;51.992;5.890;2022-07-29T09:45:59;6.95;;;2.40;;
55827;SDS011;41758;51.992;5.890;2022-07-29T09:48:35;4.63;;;2.30;;
55827;SDS011;41758;51.992;5.890;2022-07-29T09:51:00;4.35;;;2.00;;
55827;SDS011;41758;51.992;5.890;2022-07-29T09:53:31;3.90;;;1.90;;
55827;SDS011;41758;51.992;5.890;2022-07-29T09:55:58;5.22;;;1.92;;
55827;SDS011;41758;51.992;5.890;2022-07-29T09:58:23;6.10;;;2.40;;
55827;SDS011;41758;51.992;5.890;2022-07-29T10:00:50;4.70;;;2.40;;
55827;SDS011;41758;51.992;5.890;2022-07-29T10:03:16;3.42;;;2.20;;
55827;SDS011;41758;51.992;5.890;2022-07-29T10:05:43;4.22;;;1.92;;
55827;SDS011;41758;51.992;5.890;2022-07-29T10:08:10;4.00;;;2.17;;
55827;SDS011;41758;51.992;5.890;2022-07-29T10:10:42;4.18;;;2.17;;
55827;SDS011;41758;51.992;5.890;2022-07-29T10:13:12;4.35;;;2.08;;
55827;SDS011;41758;51.992;5.890;2022-07-29T10:15:42;5.22;;;2.10;;
55827;SDS011;41758;51.992;5.890;2022-07-29T10:18:10;3.08;;;1.77;;
55827;SDS011;41758;51.992;5.890;2022-07-29T10:20:40;4.35;;;1.52;;
55827;SDS011;41758;51.992;5.890;2022-07-29T10:23:06;3.92;;;2.20;;
55827;SDS011;41758;51.992;5.890;2022-07-29T10:28:37;4.10;;;2.10;;
55827;SDS011;41758;51.992;5.890;2022-07-29T10:31:28;4.20;;;1.83;;
55827;SDS011;41758;51.992;5.890;2022-07-29T10:40:29;4.28;;;1.88;;
55827;SDS011;41758;51.992;5.890;2022-07-29T10:44:05;3.05;;;1.70;;
55827;SDS011;41758;51.992;5.890;2022-07-29T10:46:40;4.80;;;2.30;;
55827;SDS011;41758;51.992;5.890;2022-07-29T10:49:23;5.28;;;1.90;;
55827;SDS011;41758;51.992;5.890;2022-07-29T10:52:02;7.38;;;2.65;;
55827;SDS011;41758;51.992;5.890;2022-07-29T10:55:10;3.85;;;2.00;;
55827;SDS011;41758;51.992;5.890;2022-07-29T10:58:21;5.68;;;1.70;;
55827;SDS011;41758;51.992;5.890;2022-07-29T11:05:13;5.32;;;2.08;;
55827;SDS011;41758;51.992;5.890;2022-07-29T11:16:01;5.03;;;2.30;;
55827;SDS011;41758;51.992;5.890;2022-07-29T11:21:47;3.22;;;1.65;;
55827;SDS011;41758;51.992;5.890;2022-07-29T11:28:21;3.55;;;1.50;;
55827;SDS011;41758;51.992;5.890;2022-07-29T11:35:33;3.42;;;1.80;;
55827;SDS011;41758;51.992;5.890;2022-07-29T11:41:48;3.20;;;1.70;;
55827;SDS011;41758;51.992;5.890;2022-07-29T11:47:58;5.85;;;2.20;;
55827;SDS011;41758;51.992;5.890;2022-07-29T11:51:08;7.05;;;2.13;;
55827;SDS011;41758;51.992;5.890;2022-07-29T11:54:50;4.47;;;2.35;;
55827;SDS011;41758;51.992;5.890;2022-07-29T11:58:30;5.25;;;2.10;;
55827;SDS011;41758;51.992;5.890;2022-07-29T12:00:59;3.45;;;1.60;;
55827;SDS011;41758;51.992;5.890;2022-07-29T12:07:38;2.90;;;1.30;;
55827;SDS011;41758;51.992;5.890;2022-07-29T12:10:10;3.88;;;1.83;;
55827;SDS011;41758;51.992;5.890;2022-07-29T12:12:38;4.75;;;1.90;;
55827;SDS011;41758;51.992;5.890;2022-07-29T12:15:27;3.33;;;1.80;;
55827;SDS011;41758;51.992;5.890;2022-07-29T12:21:13;3.88;;;1.75;;
55827;SDS011;41758;51.992;5.890;2022-07-29T12:23:51;5.30;;;1.70;;
55827;SDS011;41758;51.992;5.890;2022-07-29T12:26:19;4.70;;;1.90;;
55827;SDS011;41758;51.992;5.890;2022-07-29T12:29:02;4.97;;;1.70;;
55827;SDS011;41758;51.992;5.890;2022-07-29T12:35:21;4.88;;;1.85;;
55827;SDS011;41758;51.992;5.890;2022-07-29T12:37:47;2.88;;;1.48;;
55827;SDS011;41758;51.992;5.890;2022-07-29T12:40:16;5.00;;;2.30;;
55827;SDS011;41758;51.992;5.890;2022-07-29T12:45:55;3.05;;;1.50;;
55827;SDS011;41758;51.992;5.890;2022-07-29T12:48:38;2.70;;;1.33;;
55827;SDS011;41758;51.992;5.890;2022-07-29T12:53:34;3.97;;;1.80;;
55827;SDS011;41758;51.992;5.890;2022-07-29T12:56:01;6.85;;;1.50;;
55827;SDS011;41758;51.992;5.890;2022-07-29T12:58:32;3.53;;;1.60;;
55827;SDS011;41758;51.992;5.890;2022-07-29T13:01:07;6.45;;;1.92;;
55827;SDS011;41758;51.992;5.890;2022-07-29T13:11:39;2.70;;;1.48;;
55827;SDS011;41758;51.992;5.890;2022-07-29T13:14:13;2.92;;;1.30;;
55827;SDS011;41758;51.992;5.890;2022-07-29T13:17:06;3.22;;;1.50;;
55827;SDS011;41758;51.992;5.890;2022-07-29T13:19:35;3.10;;;1.50;;
55827;SDS011;41758;51.992;5.890;2022-07-29T13:22:03;2.90;;;1.45;;
55827;SDS011;41758;51.992;5.890;2022-07-29T13:24:29;3.22;;;1.50;;
55827;SDS011;41758;51.992;5.890;2022-07-29T13:27:19;4.38;;;1.90;;
55827;SDS011;41758;51.992;5.890;2022-07-29T13:30:08;5.20;;;1.55;;
55827;SDS011;41758;51.992;5.890;2022-07-29T13:32:37;2.25;;;1.40;;
55827;SDS011;41758;51.992;5.890;2022-07-29T13:35:04;3.60;;;1.92;;
55827;SDS011;41758;51.992;5.890;2022-07-29T13:37:31;5.93;;;1.60;;
55827;SDS011;41758;51.992;5.890;2022-07-29T13:40:06;3.22;;;1.70;;
55827;SDS011;41758;51.992;5.890;2022-07-29T13:42:36;4.10;;;1.80;;
55827;SDS011;41758;51.992;5.890;2022-07-29T13:45:08;3.60;;;1.83;;
55827;SDS011;41758;51.992;5.890;2022-07-29T13:47:36;3.25;;;1.55;;
55827;SDS011;41758;51.992;5.890;2022-07-29T13:50:02;4.75;;;1.52;;
55827;SDS011;41758;51.992;5.890;2022-07-29T13:52:29;6.25;;;1.85;;
55827;SDS011;41758;51.992;5.890;2022-07-29T13:54:55;3.58;;;1.77;;
55827;SDS011;41758;51.992;5.890;2022-07-29T13:57:24;4.25;;;1.70;;
55827;SDS011;41758;51.992;5.890;2022-07-29T13:59:50;4.15;;;1.70;;
55827;SDS011;41758;51.992;5.890;2022-07-29T14:02:16;6.90;;;2.38;;
55827;SDS011;41758;51.992;5.890;2022-07-29T14:04:42;5.68;;;2.22;;
55827;SDS011;41758;51.992;5.890;2022-07-29T14:07:08;4.00;;;1.65;;
55827;SDS011;41758;51.992;5.890;2022-07-29T14:09:35;3.85;;;1.58;;
55827;SDS011;41758;51.992;5.890;2022-07-29T14:12:03;5.15;;;1.75;;
55827;SDS011;41758;51.992;5.890;2022-07-29T14:14:29;3.42;;;1.70;;
55827;SDS011;41758;51.992;5.890;2022-07-29T14:16:59;3.58;;;1.80;;
55827;SDS011;41758;51.992;5.890;2022-07-29T14:19:25;3.83;;;1.65;;
55827;SDS011;41758;51.992;5.890;2022-07-29T14:21:51;3.92;;;1.80;;
55827;SDS011;41758;51.992;5.890;2022-07-29T14:24:16;3.63;;;1.70;;
55827;SDS011;41758;51.992;5.890;2022-07-29T14:26:42;5.10;;;1.95;;
55827;SDS011;41758;51.992;5.890;2022-07-29T14:29:13;4.97;;;1.70;;
55827;SDS011;41758;51.992;5.890;2022-07-29T14:31:39;3.08;;;1.73;;
55827;SDS011;41758;51.992;5.890;2022-07-29T14:34:05;3.58;;;1.90;;
55827;SDS011;41758;51.992;5.890;2022-07-29T14:36:31;5.00;;;1.77;;
55827;SDS011;41758;51.992;5.890;2022-07-29T14:38:57;3.47;;;1.60;;
55827;SDS011;41758;51.992;5.890;2022-07-29T14:41:22;3.10;;;1.65;;
55827;SDS011;41758;51.992;5.890;2022-07-29T14:43:48;5.15;;;1.98;;
55827;SDS011;41758;51.992;5.890;2022-07-29T14:46:14;4.15;;;1.80;;
55827;SDS011;41758;51.992;5.890;2022-07-29T14:48:39;3.15;;;1.65;;
55827;SDS011;41758;51.992;5.890;2022-07-29T14:51:05;3.03;;;1.80;;
55827;SDS011;41758;51.992;5.890;2022-07-29T14:53:31;2.88;;;1.67;;
55827;SDS011;41758;51.992;5.890;2022-07-29T14:55:57;3.17;;;1.70;;
55827;SDS011;41758;51.992;5.890;2022-07-29T14:58:22;2.92;;;1.42;;
55827;SDS011;41758;51.992;5.890;2022-07-29T15:00:48;2.88;;;1.60;;
55827;SDS011;41758;51.992;5.890;2022-07-29T15:03:14;5.68;;;1.95;;
55827;SDS011;41758;51.992;5.890;2022-07-29T15:05:39;3.13;;;1.60;;
55827;SDS011;41758;51.992;5.890;2022-07-29T15:08:05;6.07;;;1.95;;
55827;SDS011;41758;51.992;5.890;2022-07-29T15:10:33;4.00;;;1.90;;
55827;SDS011;41758;51.992;5.890;2022-07-29T15:12:59;5.80;;;1.77;;
55827;SDS011;41758;51.992;5.890;2022-07-29T15:15:25;2.90;;;1.55;;
55827;SDS011;41758;51.992;5.890;2022-07-29T15:17:51;3.13;;;1.60;;
55827;SDS011;41758;51.992;5.890;2022-07-29T15:20:17;3.97;;;1.65;;
55827;SDS011;41758;51.992;5.890;2022-07-29T15:22:43;3.40;;;1.75;;
55827;SDS011;41758;51.992;5.890;2022-07-29T15:25:09;3.97;;;1.90;;
55827;SDS011;41758;51.992;5.890;2022-07-29T15:27:35;3.92;;;1.90;;
55827;SDS011;41758;51.992;5.890;2022-07-29T15:30:09;4.72;;;1.67;;
55827;SDS011;41758;51.992;5.890;2022-07-29T15:32:35;2.45;;;1.67;;
55827;SDS011;41758;51.992;5.890;2022-07-29T15:35:01;4.30;;;1.85;;
55827;SDS011;41758;51.992;5.890;2022-07-29T15:37:27;4.65;;;2.05;;
55827;SDS011;41758;51.992;5.890;2022-07-29T15:39:53;2.92;;;1.65;;
55827;SDS011;41758;51.992;5.890;2022-07-29T15:42:19;3.55;;;1.90;;
55827;SDS011;41758;51.992;5.890;2022-07-29T15:44:47;4.20;;;1.95;;
55827;SDS011;41758;51.992;5.890;2022-07-29T15:47:13;4.35;;;2.00;;
55827;SDS011;41758;51.992;5.890;2022-07-29T15:49:39;3.85;;;2.00;;
55827;SDS011;41758;51.992;5.890;2022-07-29T15:52:09;3.17;;;1.67;;
55827;SDS011;41758;51.992;5.890;2022-07-29T15:54:36;4.85;;;1.80;;
55827;SDS011;41758;51.992;5.890;2022-07-29T15:57:06;4.15;;;1.70;;
55827;SDS011;41758;51.992;5.890;2022-07-29T15:59:34;2.47;;;1.63;;
55827;SDS011;41758;51.992;5.890;2022-07-29T16:02:00;3.22;;;1.73;;
55827;SDS011;41758;51.992;5.890;2022-07-29T16:04:28;3.90;;;1.90;;
55827;SDS011;41758;51.992;5.890;2022-07-29T16:06:54;3.05;;;1.70;;
55827;SDS011;41758;51.992;5.890;2022-07-29T16:09:27;3.88;;;1.80;;
55827;SDS011;41758;51.992;5.890;2022-07-29T16:11:53;3.70;;;1.70;;
55827;SDS011;41758;51.992;5.890;2022-07-29T16:14:20;4.28;;;1.73;;
55827;SDS011;41758;51.992;5.890;2022-07-29T16:16:49;2.88;;;1.70;;
55827;SDS011;41758;51.992;5.890;2022-07-29T16:19:14;2.72;;;1.60;;
55827;SDS011;41758;51.992;5.890;2022-07-29T16:24:25;3.08;;;1.70;;
55827;SDS011;41758;51.992;5.890;2022-07-29T16:27:01;3.25;;;1.55;;
55827;SDS011;41758;51.992;5.890;2022-07-29T16:35:14;2.60;;;1.60;;
55827;SDS011;41758;51.992;5.890;2022-07-29T16:37:42;3.45;;;1.75;;
55827;SDS011;41758;51.992;5.890;2022-07-29T16:40:17;2.88;;;1.73;;
55827;SDS011;41758;51.992;5.890;2022-07-29T16:42:48;4.15;;;1.75;;
55827;SDS011;41758;51.992;5.890;2022-07-29T16:45:59;3.63;;;1.90;;
55827;SDS011;41758;51.992;5.890;2022-07-29T16:48:38;3.60;;;1.70;;
55827;SDS011;41758;51.992;5.890;2022-07-29T16:51:24;3.05;;;1.45;;
55827;SDS011;41758;51.992;5.890;2022-07-29T16:54:18;3.30;;;1.80;;
55827;SDS011;41758;51.992;5.890;2022-07-29T16:56:52;3.63;;;1.80;;
55827;SDS011;41758;51.992;5.890;2022-07-29T16:59:28;3.15;;;1.90;;
55827;SDS011;41758;51.992;5.890;2022-07-29T17:02:04;3.45;;;1.90;;
55827;SDS011;41758;51.992;5.890;2022-07-29T17:04:34;5.13;;;2.17;;